Wetterdaten: aktuell Samstag, 09.05.2026 21:31
Datum Zeit Temp. A. Feuchte A. Luftdruck Regen Wind Richtung Richtung Taupunkt Windchill
09.05.2026 21:31 18,7 °C 36 % 1007,1 hPa 0,0 l/m² 0,1 km/h (0 Bft) N 355 ° 3,3 °C 18,7 °C
09.05.2026 21:29 18,8 °C 36 % 1007,1 hPa 0,0 l/m² 0,1 km/h (0 Bft) N 355 ° 3,4 °C 18,8 °C
09.05.2026 21:27 18,8 °C 36 % 1007,1 hPa 0,0 l/m² 2,9 km/h (1 Bft) N 355 ° 3,4 °C 18,8 °C
09.05.2026 21:25 18,9 °C 36 % 1007,1 hPa 0,0 l/m² 2,9 km/h (1 Bft) N 355 ° 3,5 °C 18,9 °C
09.05.2026 21:23 19,0 °C 36 % 1007,0 hPa 0,0 l/m² 3,1 km/h (1 Bft) N 355 ° 3,6 °C 19,0 °C
09.05.2026 21:21 18,9 °C 36 % 1007,1 hPa 0,0 l/m² 3,1 km/h (1 Bft) N 355 ° 3,5 °C 18,9 °C
09.05.2026 21:19 18,9 °C 36 % 1007,1 hPa 0,0 l/m² 5,4 km/h (1 Bft) N 355 ° 3,5 °C 18,9 °C
09.05.2026 21:17 19,0 °C 35 % 1007,0 hPa 0,0 l/m² 3,6 km/h (1 Bft) N 355 ° 3,2 °C 19,0 °C
09.05.2026 21:15 19,2 °C 35 % 1007,0 hPa 0,0 l/m² 3,6 km/h (1 Bft) N 355 ° 3,4 °C 19,2 °C
09.05.2026 21:13 19,2 °C 35 % 1007,0 hPa 0,0 l/m² 0,4 km/h (0 Bft) N 355 ° 3,4 °C 19,2 °C
09.05.2026 21:11 19,2 °C 35 % 1007,0 hPa 0,0 l/m² 2,2 km/h (1 Bft) N 360 ° 3,4 °C 19,2 °C
09.05.2026 21:09 19,3 °C 35 % 1007,0 hPa 0,0 l/m² 0,4 km/h (0 Bft) N 355 ° 3,5 °C 19,3 °C
09.05.2026 21:07 19,3 °C 35 % 1007,0 hPa 0,0 l/m² 0,4 km/h (0 Bft) N 355 ° 3,5 °C 19,3 °C
09.05.2026 21:04 19,4 °C 34 % 1007,0 hPa 0,0 l/m² 0,4 km/h (0 Bft) N 355 ° 3,1 °C 19,4 °C
09.05.2026 21:02 19,5 °C 34 % 1007,0 hPa 0,0 l/m² 3,9 km/h (1 Bft) N 355 ° 3,2 °C 19,5 °C
09.05.2026 21:00 19,5 °C 34 % 1007,0 hPa 0,0 l/m² 0,3 km/h (0 Bft) N 355 ° 3,2 °C 19,5 °C
09.05.2026 20:59 19,5 °C 34 % 1007,0 hPa 0,0 l/m² 0,3 km/h (0 Bft) N 355 ° 3,2 °C 19,5 °C
09.05.2026 20:57 19,7 °C 34 % 1007,0 hPa 0,0 l/m² 0,4 km/h (0 Bft) N 355 ° 3,4 °C 19,7 °C
09.05.2026 20:55 19,7 °C 34 % 1007,0 hPa 0,0 l/m² 1,0 km/h (0 Bft) N 355 ° 3,4 °C 19,7 °C
09.05.2026 20:53 19,8 °C 33 % 1007,0 hPa 0,0 l/m² 1,0 km/h (0 Bft) N 355 ° 3,1 °C 19,8 °C
09.05.2026 20:51 19,8 °C 33 % 1007,0 hPa 0,0 l/m² 0,9 km/h (0 Bft) N 355 ° 3,1 °C 19,8 °C
09.05.2026 20:49 19,8 °C 33 % 1007,0 hPa 0,0 l/m² 3,0 km/h (1 Bft) N 355 ° 3,1 °C 19,8 °C
09.05.2026 20:47 19,9 °C 33 % 1007,0 hPa 0,0 l/m² 0,5 km/h (0 Bft) N 355 ° 3,2 °C 19,9 °C
09.05.2026 20:45 20,0 °C 32 % 1007,0 hPa 0,0 l/m² 0,5 km/h (0 Bft) N 355 ° 2,8 °C 20,0 °C
09.05.2026 20:43 20,0 °C 32 % 1007,0 hPa 0,0 l/m² 6,3 km/h (2 Bft) N 355 ° 2,8 °C 20,0 °C
09.05.2026 20:41 19,9 °C 32 % 1007,0 hPa 0,0 l/m² 5,6 km/h (1 Bft) N 355 ° 2,7 °C 19,9 °C
09.05.2026 20:39 20,3 °C 31 % 1007,0 hPa 0,0 l/m² 5,6 km/h (1 Bft) N-NW±22.5° 345 ° 2,6 °C 20,3 °C
09.05.2026 20:37 20,3 °C 31 % 1007,0 hPa 0,0 l/m² 5,6 km/h (1 Bft) N-NW±22.5° 345 ° 2,6 °C 20,3 °C
09.05.2026 20:35 20,3 °C 32 % 1007,0 hPa 0,0 l/m² 5,3 km/h (1 Bft) N-NW 335 ° 3,1 °C 20,3 °C
09.05.2026 20:33 20,3 °C 31 % 1007,0 hPa 0,0 l/m² 3,2 km/h (1 Bft) N-NW 330 ° 2,6 °C 20,3 °C
09.05.2026 20:31 20,3 °C 31 % 1007,0 hPa 0,0 l/m² 3,2 km/h (1 Bft) N-NW 330 ° 2,6 °C 20,3 °C
09.05.2026 20:29 20,4 °C 31 % 1007,0 hPa 0,0 l/m² 6,3 km/h (2 Bft) N±22.5° 350 ° 2,7 °C 20,4 °C
09.05.2026 20:27 20,6 °C 30 % 1007,0 hPa 0,0 l/m² 6,3 km/h (2 Bft) N-NW 345 ° 2,4 °C 20,6 °C
09.05.2026 20:24 20,6 °C 30 % 1007,0 hPa 0,0 l/m² 6,3 km/h (2 Bft) N-NW 345 ° 2,4 °C 20,6 °C
09.05.2026 20:22 20,8 °C 30 % 1007,0 hPa 0,0 l/m² 6,3 km/h (2 Bft) N-NW 345 ° 2,6 °C 20,8 °C
09.05.2026 20:20 20,8 °C 30 % 1007,0 hPa 0,0 l/m² 2,1 km/h (1 Bft) NW±22.5° 325 ° 2,6 °C 20,8 °C
09.05.2026 20:19 20,9 °C 29 % 1007,0 hPa 0,0 l/m² 1,9 km/h (1 Bft) NW±22.5° 320 ° 2,2 °C 20,9 °C
09.05.2026 20:17 20,9 °C 29 % 1007,0 hPa 0,0 l/m² 1,9 km/h (1 Bft) NW±22.5° 320 ° 2,2 °C 20,9 °C
09.05.2026 20:15 20,9 °C 29 % 1007,0 hPa 0,0 l/m² 4,9 km/h (1 Bft) N 355 ° 2,2 °C 20,9 °C
09.05.2026 20:13 21,0 °C 28 % 1007,0 hPa 0,0 l/m² 6,1 km/h (2 Bft) N 355 ° 1,8 °C 21,0 °C
09.05.2026 20:11 21,0 °C 28 % 1007,0 hPa 0,0 l/m² 7,4 km/h (2 Bft) N±22.5° 350 ° 1,8 °C 20,6 °C
_ Min-Zeit 06:38 14:35 18:07 - 00:05 - - 14:37 06:38
Minimum _ 8,4 °C 20 % 1006,9 hPa - 0,0 km/h (0 Bft) - - -2,2 °C 8,4 °C
_ Max-Zeit 16:12 06:51 06:38 00:01 15:59 - - 08:27 16:12
Maximum _ 23,2 °C 81 % 1012,6 hPa 0,0 l/m² 14,6 km/h
W-SW (3 Bft)
- - 6,1 °C 23,2 °C
Durchschnitt _ 16,0 °C 48 % 1010,4 hPa #0,0 l/m² 2,4 km/h (1 Bft) N - 3,1 °C 15,9 °C